createdAt,value
2018-06-16T00:01:12.800Z,12.27
2018-06-16T00:03:41.596Z,14.23
2018-06-16T00:06:11.355Z,11.50
2018-06-16T00:08:42.164Z,12.70
2018-06-16T00:11:11.056Z,12.90
2018-06-16T00:13:40.872Z,13.10
2018-06-16T00:16:11.727Z,13.10
2018-06-16T00:18:42.503Z,14.00
2018-06-16T00:21:13.283Z,13.53
2018-06-16T00:23:42.135Z,14.25
2018-06-16T00:26:13.007Z,13.57
2018-06-16T00:28:41.859Z,13.93
2018-06-16T00:31:10.666Z,15.30
2018-06-16T00:33:43.294Z,13.20
2018-06-16T00:36:11.899Z,13.73
2018-06-16T00:38:45.226Z,12.60
2018-06-16T00:41:14.098Z,13.70
2018-06-16T00:43:44.874Z,13.80
2018-06-16T00:46:15.671Z,15.00
2018-06-16T00:48:46.468Z,14.70
2018-06-16T00:51:17.254Z,14.43
2018-06-16T00:53:46.118Z,14.77
2018-06-16T00:56:16.870Z,15.03
2018-06-16T00:58:45.663Z,15.40
2018-06-16T01:01:14.555Z,15.03
2018-06-16T01:03:44.319Z,15.23
2018-06-16T01:06:17.323Z,14.13
2018-06-16T01:08:47.082Z,14.73
2018-06-16T01:11:15.823Z,15.00
2018-06-16T01:13:46.694Z,13.80
2018-06-16T01:16:16.464Z,15.23
2018-06-16T01:18:48.659Z,15.37
2018-06-16T01:21:17.538Z,14.30
2018-06-16T01:23:48.387Z,15.40
2018-06-16T01:26:17.306Z,13.00
2018-06-16T01:28:46.159Z,14.90
2018-06-16T01:31:14.974Z,14.47
2018-06-16T01:33:43.871Z,12.80
2018-06-16T01:36:12.635Z,13.80
2018-06-16T01:38:41.531Z,13.35
2018-06-16T01:41:10.435Z,14.10
2018-06-16T01:43:40.207Z,13.37
2018-06-16T01:46:09.005Z,14.28
2018-06-16T01:48:38.803Z,12.78
2018-06-16T01:51:07.595Z,14.65
2018-06-16T01:53:38.462Z,14.38
2018-06-16T01:56:07.211Z,14.33
2018-06-16T01:58:36.748Z,13.95
2018-06-16T02:01:05.567Z,13.70
2018-06-16T02:03:34.394Z,14.73
2018-06-16T02:06:05.475Z,14.95
2018-06-16T02:08:40.837Z,13.95
2018-06-16T02:11:09.663Z,14.00
2018-06-16T02:13:40.483Z,15.07
2018-06-16T02:16:13.275Z,14.25
2018-06-16T02:18:43.047Z,15.13
2018-06-16T02:21:12.855Z,16.32
2018-06-16T02:23:41.638Z,15.23
2018-06-16T02:26:14.929Z,16.85
2018-06-16T02:28:43.679Z,17.25
2018-06-16T02:31:12.491Z,16.07
2018-06-16T02:33:41.362Z,15.18
2018-06-16T02:36:11.175Z,16.67
2018-06-16T02:38:40.999Z,17.48
2018-06-16T02:41:09.871Z,18.00
2018-06-16T02:43:38.711Z,17.55
2018-06-16T02:46:08.563Z,16.45
2018-06-16T02:48:37.322Z,17.15
2018-06-16T02:51:07.139Z,17.20
2018-06-16T02:53:35.950Z,18.40
2018-06-16T02:56:04.834Z,19.35
2018-06-16T02:58:34.682Z,17.15
2018-06-16T03:01:04.491Z,17.62
2018-06-16T03:03:33.231Z,18.05
2018-06-16T03:06:02.101Z,17.55
2018-06-16T03:08:30.930Z,16.65
2018-06-16T03:11:03.108Z,17.57
2018-06-16T03:13:36.003Z,16.70
2018-06-16T03:16:04.795Z,18.07
2018-06-16T03:18:35.678Z,16.67
2018-06-16T03:21:04.523Z,16.33
2018-06-16T03:23:35.413Z,15.10
2018-06-16T03:26:05.159Z,16.87
2018-06-16T03:28:34.159Z,16.90
2018-06-16T03:31:04.038Z,17.57
2018-06-16T03:33:32.911Z,18.10
2018-06-16T03:36:20.734Z,17.25
2018-06-16T03:38:50.518Z,15.70
2018-06-16T03:41:19.279Z,17.07
2018-06-16T03:43:54.543Z,16.13
2018-06-16T03:46:27.635Z,16.80
2018-06-16T03:48:59.511Z,16.60
2018-06-16T03:51:28.355Z,16.40
2018-06-16T03:53:57.171Z,16.07
2018-06-16T03:56:27.026Z,16.80
2018-06-16T03:58:56.807Z,17.67
2018-06-16T04:01:25.550Z,16.73
2018-06-16T04:03:55.435Z,16.13
2018-06-16T04:06:24.227Z,15.83
2018-06-16T04:08:53.014Z,16.17
2018-06-16T04:11:22.814Z,16.33
2018-06-16T04:13:51.578Z,16.27
2018-06-16T04:16:20.434Z,15.83
2018-06-16T04:18:49.938Z,15.70
2018-06-16T04:21:22.099Z,16.03
2018-06-16T04:23:50.932Z,16.00
2018-06-16T04:26:21.723Z,17.03
2018-06-16T04:28:51.502Z,16.60
2018-06-16T04:31:21.339Z,15.00
2018-06-16T04:33:50.150Z,15.70
2018-06-16T04:36:20.966Z,14.90
2018-06-16T04:38:54.650Z,18.33
2018-06-16T04:41:23.495Z,17.40
2018-06-16T04:43:54.238Z,17.43
2018-06-16T04:46:23.171Z,17.07
2018-06-16T04:51:45.251Z,14.90
2018-06-16T04:54:14.118Z,14.93
2018-06-16T04:56:48.755Z,14.30
2018-06-16T04:59:18.490Z,13.97
2018-06-16T05:01:50.743Z,13.37
2018-06-16T05:04:19.611Z,13.30
2018-06-16T05:06:55.614Z,12.40
2018-06-16T05:09:27.338Z,13.13
2018-06-16T05:11:56.131Z,13.17
2018-06-16T05:14:26.890Z,12.10
2018-06-16T05:16:59.323Z,13.00
2018-06-16T05:19:28.106Z,11.90
2018-06-16T05:21:57.952Z,12.00
2018-06-16T05:24:26.722Z,11.77
2018-06-16T05:26:55.242Z,12.37
2018-06-16T05:29:29.730Z,11.23
2018-06-16T05:32:20.750Z,10.80
2018-06-16T05:34:49.622Z,12.43
2018-06-16T05:37:23.362Z,10.60
2018-06-16T05:39:54.790Z,9.60
2018-06-16T05:42:29.909Z,9.90
2018-06-16T05:45:08.761Z,10.57
2018-06-16T05:47:39.530Z,9.00
2018-06-16T05:50:15.442Z,10.00
2018-06-16T05:52:50.158Z,8.87
2018-06-16T05:55:19.013Z,8.67
2018-06-16T05:57:47.754Z,8.73
2018-06-16T06:00:22.172Z,8.40
2018-06-16T06:02:52.181Z,8.30
2018-06-16T06:05:22.926Z,8.07
2018-06-16T06:07:53.670Z,8.23
2018-06-16T06:10:26.457Z,8.30
2018-06-16T06:12:54.978Z,7.77
2018-06-16T06:15:23.826Z,9.30
2018-06-16T06:17:56.026Z,8.50
2018-06-16T06:20:26.849Z,8.90
2018-06-16T06:22:56.473Z,9.20
2018-06-16T06:25:26.289Z,9.37
2018-06-16T06:27:55.038Z,9.33
2018-06-16T06:30:23.857Z,9.70
2018-06-16T06:32:52.621Z,10.73
2018-06-16T06:35:25.858Z,10.13
2018-06-16T06:37:57.882Z,9.60
2018-06-16T06:40:33.269Z,10.37
2018-06-16T06:43:02.818Z,8.97
2018-06-16T06:45:54.194Z,8.87
2018-06-16T06:48:22.894Z,7.90
2018-06-16T06:51:10.578Z,8.20
2018-06-16T06:53:43.538Z,7.90
2018-06-16T06:56:12.019Z,8.07
2018-06-16T06:58:40.638Z,7.80
2018-06-16T07:01:10.419Z,7.70
2018-06-16T07:03:44.718Z,8.77
2018-06-16T07:06:13.434Z,7.63
2018-06-16T07:08:42.166Z,7.17
2018-06-16T07:11:11.979Z,7.90
2018-06-16T07:13:41.519Z,8.00
2018-06-16T07:16:13.602Z,7.97
2018-06-16T07:18:46.354Z,7.10
2018-06-16T07:21:15.198Z,7.50
2018-06-16T07:23:48.051Z,7.83
2018-06-16T07:26:27.056Z,6.60
2018-06-16T07:29:01.286Z,8.13
2018-06-16T07:31:30.112Z,6.93
2018-06-16T07:34:02.026Z,7.20
2018-06-16T07:36:31.863Z,6.67
2018-06-16T07:39:01.663Z,6.77
2018-06-16T07:41:47.818Z,6.80
2018-06-16T07:44:22.206Z,6.80
2018-06-16T07:46:51.950Z,7.17
2018-06-16T07:49:32.030Z,6.70
2018-06-16T07:52:00.814Z,6.80
2018-06-16T07:54:33.202Z,5.80
2018-06-16T07:57:03.030Z,6.10
2018-06-16T07:59:45.482Z,5.47
2018-06-16T08:02:19.226Z,6.17
2018-06-16T08:04:51.194Z,5.97
2018-06-16T08:07:24.055Z,5.50
2018-06-16T08:10:06.394Z,5.00
2018-06-16T08:12:38.322Z,5.40
2018-06-16T08:15:12.570Z,4.90
2018-06-16T08:17:48.838Z,5.70
2018-06-16T08:20:32.798Z,5.27
2018-06-16T08:23:01.534Z,5.10
2018-06-16T08:25:30.270Z,5.30
2018-06-16T08:27:59.106Z,4.70
2018-06-16T08:30:40.626Z,5.00
2018-06-16T08:33:10.366Z,5.40
2018-06-16T08:35:55.575Z,5.27
2018-06-16T08:38:26.302Z,5.03
2018-06-16T08:40:58.642Z,4.80
2018-06-16T08:43:30.734Z,5.27
2018-06-16T08:45:59.538Z,5.17
2018-06-16T08:48:34.081Z,5.10
2018-06-16T08:51:04.803Z,4.77
2018-06-16T08:53:39.869Z,4.73
2018-06-16T08:56:08.610Z,4.73
2018-06-16T08:58:37.385Z,4.73
2018-06-16T09:01:07.261Z,5.17
2018-06-16T09:03:36.037Z,5.50
2018-06-16T09:06:06.882Z,5.10
2018-06-16T09:08:40.757Z,5.30
2018-06-16T09:11:22.609Z,5.00
2018-06-16T09:13:51.424Z,5.33
2018-06-16T09:16:20.201Z,4.63
2018-06-16T09:18:48.931Z,4.63
2018-06-16T09:21:23.193Z,5.07
2018-06-16T09:23:55.853Z,4.93
2018-06-16T09:26:24.709Z,4.80
2018-06-16T09:28:58.829Z,5.20
2018-06-16T09:31:38.417Z,4.80
2018-06-16T09:34:15.441Z,5.03
2018-06-16T09:36:44.225Z,4.90
2018-06-16T09:39:18.841Z,4.50
2018-06-16T09:42:06.059Z,4.10
2018-06-16T09:44:38.297Z,4.40
2018-06-16T09:47:09.066Z,4.30
2018-06-16T09:49:37.801Z,4.07
2018-06-16T09:52:09.905Z,4.03
2018-06-16T09:54:39.713Z,4.10
2018-06-16T09:57:12.825Z,4.17
2018-06-16T09:59:42.547Z,4.27
2018-06-16T10:02:12.335Z,4.57
2018-06-16T10:04:43.061Z,4.07
2018-06-16T10:07:23.037Z,4.20
2018-06-16T10:09:57.318Z,3.70
2018-06-16T10:12:28.057Z,4.77
2018-06-16T10:15:02.605Z,4.13
2018-06-16T10:17:37.049Z,4.37
2018-06-16T10:20:06.753Z,4.23
2018-06-16T10:22:41.073Z,3.80
2018-06-16T10:25:09.549Z,4.37
2018-06-16T10:27:38.289Z,4.30
2018-06-16T10:30:07.045Z,4.70
2018-06-16T10:32:37.989Z,4.23
2018-06-16T10:35:06.861Z,4.37
2018-06-16T10:37:35.705Z,4.53
2018-06-16T10:40:10.381Z,4.50
2018-06-16T10:42:41.113Z,3.50
2018-06-16T10:45:11.957Z,4.10
2018-06-16T10:47:40.793Z,3.80
2018-06-16T10:50:10.540Z,3.70
2018-06-16T10:52:39.469Z,3.40
2018-06-16T10:55:11.761Z,3.90
2018-06-16T10:57:50.845Z,3.37
2018-06-16T11:00:25.637Z,3.77
2018-06-16T11:02:54.445Z,4.10
2018-06-16T11:05:24.328Z,3.70
2018-06-16T11:08:01.570Z,3.97
2018-06-16T11:10:42.061Z,3.43
2018-06-16T11:13:15.989Z,3.43
2018-06-16T11:15:49.809Z,3.50
2018-06-16T11:18:29.054Z,3.83
2018-06-16T11:20:59.801Z,3.73
2018-06-16T11:23:28.665Z,4.23
2018-06-16T11:25:58.481Z,4.63
2018-06-16T11:28:32.461Z,4.90
2018-06-16T11:31:01.265Z,4.60
2018-06-16T11:33:30.049Z,4.30
2018-06-16T11:35:58.857Z,3.90
2018-06-16T11:38:29.461Z,4.60
2018-06-16T11:41:03.573Z,4.50
2018-06-16T11:43:36.848Z,4.00
2018-06-16T11:46:05.752Z,4.30
2018-06-16T11:48:39.219Z,3.93
2018-06-16T11:51:10.061Z,4.53
2018-06-16T11:53:43.881Z,4.60
2018-06-16T11:56:12.637Z,4.50
2018-06-16T11:58:42.385Z,5.20
2018-06-16T12:01:12.233Z,4.23
2018-06-16T12:03:50.941Z,4.47
2018-06-16T12:06:20.725Z,4.73
2018-06-16T12:08:56.725Z,3.70
2018-06-16T12:11:25.724Z,4.00
2018-06-16T12:13:59.989Z,4.50
2018-06-16T12:16:31.849Z,4.03
2018-06-16T12:19:06.544Z,4.10
2018-06-16T12:21:36.297Z,4.00
2018-06-16T12:24:05.205Z,4.07
2018-06-16T12:26:39.376Z,5.10
2018-06-16T12:32:02.268Z,3.60
2018-06-16T12:34:33.105Z,4.50
2018-06-16T12:37:01.885Z,4.17
2018-06-16T12:39:34.756Z,3.63
2018-06-16T12:42:08.783Z,3.83
2018-06-16T12:44:45.365Z,4.90
2018-06-16T12:47:18.640Z,4.53
2018-06-16T12:49:52.848Z,4.33
2018-06-16T12:52:25.676Z,4.07
2018-06-16T12:54:54.412Z,3.73
2018-06-16T12:57:35.644Z,3.93
2018-06-16T13:00:09.207Z,3.40
2018-06-16T13:02:43.052Z,3.77
2018-06-16T13:05:11.872Z,3.57
2018-06-16T13:07:46.273Z,3.83
2018-06-16T13:10:23.154Z,3.77
2018-06-16T13:12:57.508Z,6.40
2018-06-16T13:15:26.309Z,3.67
2018-06-16T13:17:55.080Z,3.27
2018-06-16T13:20:25.945Z,4.97
2018-06-16T13:23:00.757Z,4.20
2018-06-16T13:25:31.605Z,3.33
2018-06-16T13:28:01.444Z,3.80
2018-06-16T13:30:34.000Z,3.40
2018-06-16T13:33:12.312Z,3.50
2018-06-16T13:35:52.056Z,6.93
2018-06-16T13:38:21.836Z,3.60
2018-06-16T13:40:50.612Z,4.03
2018-06-16T13:43:21.360Z,4.00
2018-06-16T13:46:00.504Z,3.63
2018-06-16T13:48:29.240Z,4.20
2018-06-16T13:51:04.585Z,3.83
2018-06-16T13:53:35.432Z,3.57
2018-06-16T13:56:12.756Z,4.10
2018-06-16T13:58:41.444Z,3.57
2018-06-16T14:01:11.228Z,6.97
2018-06-16T14:03:56.691Z,3.80
2018-06-16T14:06:25.516Z,3.60
2018-06-16T14:08:54.312Z,3.67
2018-06-16T14:11:37.269Z,4.10
2018-06-16T14:14:07.008Z,3.20
2018-06-16T14:16:35.779Z,3.40
2018-06-16T14:19:04.517Z,3.57
2018-06-16T14:21:33.276Z,3.37
2018-06-16T14:24:02.005Z,3.40
2018-06-16T14:26:32.731Z,3.40
2018-06-16T14:29:08.414Z,3.77
2018-06-16T14:31:38.216Z,3.40
2018-06-16T14:34:07.972Z,3.80
2018-06-16T14:36:36.724Z,3.67
2018-06-16T14:39:10.740Z,3.60
2018-06-16T14:41:39.831Z,3.20
2018-06-16T14:44:15.864Z,3.10
2018-06-16T14:46:45.580Z,4.63
2018-06-16T14:49:15.337Z,4.33
2018-06-16T14:51:48.120Z,4.20
2018-06-16T14:54:16.848Z,3.97
2018-06-16T14:56:45.612Z,4.33
2018-06-16T14:59:14.328Z,4.07
2018-06-16T15:01:44.088Z,4.03
2018-06-16T15:04:24.451Z,4.40
2018-06-16T15:07:00.340Z,4.27
2018-06-16T15:09:37.123Z,3.67
2018-06-16T15:12:07.692Z,4.43
2018-06-16T15:14:40.376Z,4.63
2018-06-16T15:17:09.092Z,4.10
2018-06-16T15:19:45.432Z,4.00
2018-06-16T15:22:17.202Z,4.27
2018-06-16T15:24:51.492Z,4.63
2018-06-16T15:27:26.240Z,4.33
2018-06-16T15:30:08.772Z,3.60
2018-06-16T15:32:38.564Z,4.53
2018-06-16T15:35:18.084Z,3.83
2018-06-16T15:37:46.831Z,4.40
2018-06-16T15:40:15.524Z,4.30
2018-06-16T15:42:47.736Z,4.27
2018-06-16T15:45:20.156Z,4.17
2018-06-16T15:47:49.172Z,4.10
2018-06-16T15:50:23.660Z,3.90
2018-06-16T15:52:56.108Z,4.40
2018-06-16T15:55:25.919Z,3.97
2018-06-16T15:58:08.096Z,3.53
2018-06-16T16:00:45.679Z,3.50
2018-06-16T16:03:16.399Z,3.80
2018-06-16T16:05:49.596Z,3.37
2018-06-16T16:08:19.353Z,3.73
2018-06-16T16:10:49.056Z,3.97
2018-06-16T16:13:21.543Z,3.60
2018-06-16T16:15:50.308Z,3.50
2018-06-16T16:18:19.084Z,3.33
2018-06-16T16:20:55.216Z,3.97
2018-06-16T16:23:25.991Z,3.10
2018-06-16T16:26:07.755Z,4.13
2018-06-16T16:28:42.163Z,4.13
2018-06-16T16:31:15.595Z,4.00
2018-06-16T16:33:49.552Z,3.30
2018-06-16T16:36:24.120Z,3.77
2018-06-16T16:41:47.095Z,3.63
2018-06-16T16:44:19.431Z,3.80
2018-06-16T16:47:02.475Z,3.70
2018-06-16T16:49:33.209Z,4.30
2018-06-16T16:52:02.932Z,3.80
2018-06-16T16:54:31.984Z,4.30
2018-06-16T16:57:08.552Z,5.37
2018-06-16T16:59:37.392Z,4.33
2018-06-16T17:02:16.499Z,4.73
2018-06-16T17:04:47.212Z,4.47
2018-06-16T17:07:16.056Z,4.50
2018-06-16T17:09:44.844Z,3.80
2018-06-16T17:12:25.604Z,4.63
2018-06-16T17:15:02.448Z,6.60
2018-06-16T17:20:27.136Z,4.20
2018-06-16T17:23:18.154Z,4.50
2018-06-16T17:25:46.988Z,4.33
2018-06-16T17:28:15.823Z,3.90
2018-06-16T17:30:58.392Z,4.73
2018-06-16T17:33:27.175Z,4.03
2018-06-16T17:36:00.452Z,4.47
2018-06-16T17:38:29.252Z,4.00
2018-06-16T17:41:02.643Z,3.43
2018-06-16T17:43:42.135Z,3.93
2018-06-16T17:46:10.996Z,4.03
2018-06-16T17:48:39.800Z,4.80
2018-06-16T17:51:14.307Z,5.20
2018-06-16T17:53:43.056Z,4.10
2018-06-16T17:56:17.055Z,4.10
2018-06-16T17:58:56.356Z,4.07
2018-06-16T18:01:25.127Z,4.60
2018-06-16T18:04:06.484Z,4.80
2018-06-16T18:06:51.324Z,7.20
2018-06-16T18:09:21.067Z,4.27
2018-06-16T18:12:02.204Z,4.20
2018-06-16T18:14:34.296Z,4.30
2018-06-16T18:17:03.072Z,4.30
2018-06-16T18:19:33.059Z,4.20
2018-06-16T18:22:02.855Z,4.10
2018-06-16T18:24:35.775Z,12.83
2018-06-16T18:27:09.859Z,5.90
2018-06-16T18:29:46.476Z,7.50
2018-06-16T18:32:21.469Z,25.03
2018-06-16T18:34:51.239Z,16.80
2018-06-16T18:37:24.094Z,6.87
2018-06-16T18:39:54.271Z,6.57
2018-06-16T18:42:26.508Z,6.20
2018-06-16T18:44:56.313Z,4.97
2018-06-16T18:47:26.067Z,5.90
2018-06-16T18:50:01.660Z,5.97
2018-06-16T18:52:30.627Z,5.13
2018-06-16T18:55:01.426Z,5.27
2018-06-16T18:57:31.007Z,5.87
2018-06-16T18:59:59.821Z,5.13
2018-06-16T19:02:28.679Z,5.30
2018-06-16T19:04:59.563Z,5.80
2018-06-16T19:07:29.397Z,5.70
2018-06-16T19:10:02.504Z,5.50
2018-06-16T19:12:31.331Z,5.67
2018-06-16T19:15:03.683Z,5.87
2018-06-16T19:17:37.975Z,6.87
2018-06-16T19:20:13.039Z,5.80
2018-06-16T19:22:41.915Z,6.70
2018-06-16T19:25:10.680Z,6.07
2018-06-16T19:27:40.427Z,5.83
2018-06-16T19:30:10.243Z,8.17
2018-06-16T19:32:39.087Z,8.20
2018-06-16T19:35:07.996Z,10.57
2018-06-16T19:37:36.887Z,8.93
2018-06-16T19:40:10.180Z,9.33
2018-06-16T19:42:42.043Z,9.20
2018-06-16T19:45:10.858Z,9.10
2018-06-16T19:47:39.671Z,8.03
2018-06-16T19:50:13.991Z,8.50
2018-06-16T19:52:42.962Z,9.47
2018-06-16T19:55:16.551Z,8.97
2018-06-16T19:57:45.495Z,8.30
2018-06-16T20:00:14.071Z,29.37
2018-06-16T20:02:44.819Z,10.47
2018-06-16T20:05:14.667Z,8.80
2018-06-16T20:07:49.311Z,8.00
2018-06-16T20:10:18.155Z,8.20
2018-06-16T20:12:48.066Z,7.50
2018-06-16T20:15:16.875Z,8.00
2018-06-16T20:17:46.643Z,8.20
2018-06-16T20:20:15.567Z,9.03
2018-06-16T20:22:44.356Z,8.57
2018-06-16T20:25:13.222Z,9.03
2018-06-16T20:27:45.775Z,9.03
2018-06-16T20:30:15.456Z,9.10
2018-06-16T20:32:47.974Z,9.87
2018-06-16T20:35:16.819Z,9.60
2018-06-16T20:38:03.639Z,10.23
2018-06-16T20:40:38.338Z,10.20
2018-06-16T20:43:07.154Z,8.90
2018-06-16T20:45:40.227Z,9.23
2018-06-16T20:48:09.011Z,10.40
2018-06-16T20:50:45.558Z,9.90
2018-06-16T20:53:14.422Z,8.97
2018-06-16T20:55:49.650Z,9.23
2018-06-16T20:58:18.482Z,9.07
2018-06-16T21:00:50.303Z,9.37
2018-06-16T21:03:19.275Z,9.20
2018-06-16T21:05:49.027Z,10.00
2018-06-16T21:08:17.857Z,10.43
2018-06-16T21:10:46.711Z,9.87
2018-06-16T21:13:16.579Z,11.70
2018-06-16T21:15:45.386Z,10.87
2018-06-16T21:18:16.238Z,10.27
2018-06-16T21:20:46.015Z,11.33
2018-06-16T21:23:16.891Z,11.97
2018-06-16T21:25:45.719Z,11.70
2018-06-16T21:28:18.230Z,11.80
2018-06-16T21:31:05.102Z,12.60
2018-06-16T21:33:38.210Z,12.50
2018-06-16T21:36:09.106Z,13.33
2018-06-16T21:38:41.889Z,13.40
2018-06-16T21:41:10.734Z,13.80
2018-06-16T21:43:39.682Z,15.30
2018-06-16T21:46:09.498Z,13.03
2018-06-16T21:48:50.654Z,14.20
2018-06-16T21:51:19.566Z,13.43
2018-06-16T21:53:48.386Z,14.10
2018-06-16T21:56:19.250Z,16.17
2018-06-16T21:58:49.030Z,14.70
2018-06-16T22:01:17.846Z,14.80
2018-06-16T22:03:46.730Z,14.40
2018-06-16T22:06:15.642Z,13.50
2018-06-16T22:08:45.542Z,13.37
2018-06-16T22:11:24.254Z,13.60
2018-06-16T22:13:59.078Z,13.93
2018-06-16T22:16:27.914Z,13.67
2018-06-16T22:18:56.781Z,13.07
2018-06-16T22:21:25.654Z,14.00
2018-06-16T22:23:56.898Z,12.73
2018-06-16T22:26:25.795Z,14.73
2018-06-16T22:28:54.686Z,13.90
2018-06-16T22:31:23.477Z,14.20
2018-06-16T22:33:52.370Z,13.17
2018-06-16T22:36:21.266Z,13.20
2018-06-16T22:38:53.822Z,14.30
2018-06-16T22:41:26.890Z,12.23
2018-06-16T22:43:55.700Z,13.10
2018-06-16T22:46:24.602Z,12.97
2018-06-16T22:48:56.862Z,12.23
2018-06-16T22:51:25.738Z,12.40
2018-06-16T22:53:54.630Z,12.10
2018-06-16T22:56:27.750Z,13.30
2018-06-16T22:58:56.770Z,12.90
2018-06-16T23:01:25.622Z,11.90
2018-06-16T23:03:54.406Z,13.23
2018-06-16T23:06:23.322Z,13.60
2018-06-16T23:08:52.142Z,13.00
2018-06-16T23:11:21.970Z,11.90
2018-06-16T23:13:50.790Z,11.37
2018-06-16T23:16:27.010Z,12.30
2018-06-16T23:18:57.786Z,12.10
2018-06-16T23:21:27.562Z,11.60
2018-06-16T23:24:01.014Z,12.77
2018-06-16T23:26:34.094Z,14.63
2018-06-16T23:29:02.970Z,13.80
2018-06-16T23:31:31.886Z,14.67
2018-06-16T23:34:02.789Z,15.57
2018-06-16T23:36:31.698Z,15.10
2018-06-16T23:39:00.566Z,14.30
2018-06-16T23:41:29.457Z,16.43
2018-06-16T23:44:10.362Z,13.73
2018-06-16T23:46:42.285Z,15.30
2018-06-16T23:49:12.130Z,15.00
2018-06-16T23:51:44.078Z,15.23
2018-06-16T23:54:16.130Z,15.47
2018-06-16T23:56:48.886Z,15.47
2018-06-16T23:59:25.326Z,14.60
